This is the latest recevied weather packets stored in our database for station/object eb1ayw-13. If no packets are shown the sender has not sent any weather packets the latest 1 day(s).
| Time | Temp. | Humidity | Pressure | Rain* | Wind** | Luminosity | Snow |
|---|---|---|---|---|---|---|---|
| 1778083669 | 47.22° C | 8% | 998.9 hPa | - | - | - | - |
| 1778078269 | 44.44° C | 10% | 1000.5 hPa | - | - | - | - |
| 1778077669 | 38.33° C | 13% | 1002.1 hPa | - | - | - | - |
| 1778075269 | 41.67° C | 11% | 1001.6 hPa | - | - | - | - |
| 1778074669 | 40.56° C | 11% | 1002 hPa | - | - | - | - |
| 1778073469 | 43.33° C | 10% | 1001.5 hPa | - | - | - | - |
| 1778065669 | 45° C | 10% | 1002.4 hPa | - | - | - | - |
| 1778064469 | 41.11° C | 12% | 1003.3 hPa | - | - | - | - |
| 1778063870 | 42.22° C | 12% | 1003 hPa | - | - | - | - |
| 1778062669 | 42.22° C | 12% | 1003.1 hPa | - | - | - | - |
| 1778061469 | 43.89° C | 11% | 1002.6 hPa | - | - | - | - |
| 1778060869 | 45.56° C | 10% | 1002.3 hPa | - | - | - | - |
| 1778060269 | 37.78° C | 14% | 1004.4 hPa | - | - | - | - |
| 1778059669 | 38.89° C | 14% | 1004.1 hPa | - | - | - | - |
| 1778059069 | 38.33° C | 14% | 1004.3 hPa | - | - | - | - |
| 1778058469 | 37.22° C | 14% | 1004.4 hPa | - | - | - | - |
| 1778057869 | 36.67° C | 15% | 1004.6 hPa | - | - | - | - |
| 1778057269 | 32.78° C | 19% | 1005.7 hPa | - | - | - | - |
| 1778056669 | 36.67° C | 18% | 1004.6 hPa | - | - | - | - |
| 1778056069 | 36.67° C | 17% | 1004.6 hPa | - | - | - | - |
| 1778055469 | 33.33° C | 19% | 1005.6 hPa | - | - | - | - |
| 1778054869 | 38.33° C | 17% | 1004.2 hPa | - | - | - | - |
| 1778054269 | 35.56° C | 18% | 1004.9 hPa | - | - | - | - |
| 1778053070 | 32.78° C | 21% | 1005.7 hPa | - | - | - | - |
| 1778052469 | 34.44° C | 19% | 1005.1 hPa | - | - | - | - |
* Rain since midnight (hover to see other rain measurements)
** Current wind speed in m/s (hover to see current wind gust speed)